| time (UTC) | temp F | wind direction | speed knots | gust knots | rain 1hr in | rain 24hr in | rain mn in | humidity % | barometer mb |
| 20260505073100 | 74 | 275 | 0.0 | 0.0 | 0.00 | 0.00 | 0.00 | 95 | 1017.1 |
| 20260505072555 | 74 | 285 | 0.0 | 0.9 | 0.00 | 0.00 | 0.00 | 95 | 1016.9 |
| 20260505072052 | 74 | 304 | 0.9 | 0.9 | 0.00 | 0.00 | 0.00 | 95 | 1017.1 |
| 20260505071547 | 74 | 288 | 0.9 | 0.9 | 0.00 | 0.00 | 0.00 | 95 | 1017.1 |
| 20260505071046 | 74 | 288 | 0.9 | 0.9 | 0.00 | 0.00 | 0.00 | 95 | 1016.9 |
| 20260505070543 | 74 | 286 | 0.9 | 0.9 | 0.00 | 0.00 | 0.00 | 95 | 1017.0 |
| 20260505070039 | 74 | 262 | 0.0 | 0.0 | 0.00 | 0.00 | 0.00 | 95 | 1016.8 |
| 20260505065535 | 74 | 313 | 0.0 | 0.9 | 0.00 | 0.00 | 0.00 | 95 | 1016.9 |
| 20260505065032 | 74 | 312 | 0.9 | 0.9 | 0.00 | 0.00 | 0.00 | 95 | 1016.9 |
| 20260505064528 | 75 | 301 | 0.0 | 0.0 | 0.00 | 0.00 | 0.00 | 94 | 1017.0 |
| 20260505064027 | 75 | 295 | 0.0 | 0.0 | 0.00 | 0.00 | 0.00 | 94 | 1017.0 |
| 20260505063524 | 75 | 282 | 0.0 | 0.0 | 0.00 | 0.00 | 0.00 | 94 | 1017.1 |
| 20260505063019 | 75 | 281 | 0.0 | 0.0 | 0.00 | 0.00 | 0.00 | 94 | 1017.0 |
| 20260505062517 | 75 | 281 | 0.0 | 0.0 | 0.00 | 0.00 | 0.00 | 94 | 1017.2 |
| 20260505062014 | 75 | 281 | 0.0 | 0.0 | 0.00 | 0.00 | 0.00 | 94 | 1016.9 |
| 20260505061511 | 75 | 281 | 0.0 | 0.0 | 0.00 | 0.00 | 0.00 | 95 | 1017.1 |
| 20260505061009 | 75 | 281 | 0.0 | 0.0 | 0.00 | 0.00 | 0.00 | 95 | 1017.1 |
| 20260505060506 | 75 | 281 | 0.0 | 0.0 | 0.00 | 0.00 | 0.00 | 94 | 1017.2 |
| 20260505060002 | 75 | 277 | 0.0 | 0.0 | 0.00 | 0.00 | 0.00 | 95 | 1017.4 |
| 20260505055458 | 75 | 277 | 0.0 | 0.0 | 0.00 | 0.00 | 0.00 | 95 | 1017.3 |
| 20260505054955 | 75 | 278 | 0.0 | 0.0 | 0.00 | 0.00 | 0.00 | 95 | 1017.5 |
| 20260505054452 | 75 | 289 | 0.0 | 0.0 | 0.00 | 0.00 | 0.00 | 94 | 1017.7 |
| 20260505053950 | 76 | 324 | 0.0 | 0.0 | 0.00 | 0.00 | 0.00 | 94 | 1017.5 |
| 20260505053447 | 76 | 322 | 0.0 | 0.0 | 0.00 | 0.00 | 0.00 | 94 | 1017.6 |
| 20260505052944 | 76 | 323 | 0.0 | 0.0 | 0.00 | 0.00 | 0.00 | 94 | 1017.9 |
| 20260505052441 | 76 | 322 | 0.0 | 0.0 | 0.00 | 0.00 | 0.00 | 94 | 1017.9 |
| 20260505051938 | 76 | 322 | 0.0 | 0.0 | 0.00 | 0.00 | 0.00 | 94 | 1017.7 |
| 20260505051435 | 76 | 322 | 0.0 | 0.0 | 0.00 | 0.00 | 0.00 | 94 | 1017.9 |
| 20260505050933 | 76 | 322 | 0.0 | 0.0 | 0.00 | 0.00 | 0.00 | 94 | 1018.0 |
| 20260505050431 | 76 | 319 | 0.0 | 0.0 | 0.00 | 0.00 | 0.00 | 94 | 1017.9 |
| 20260505041359 | 77 | 279 | 0.0 | 0.9 | 0.00 | 0.00 | 0.00 | 93 | 1018.2 |
| 20260505040856 | 77 | 279 | 0.0 | 0.9 | 0.00 | 0.00 | 0.00 | 93 | 1018.4 |
| 20260505040353 | 77 | 285 | 0.9 | 0.9 | 0.00 | 0.00 | 0.00 | 93 | 1018.3 |
| 20260505035850 | 77 | 246 | 0.0 | 0.0 | 0.00 | 0.09 | 0.09 | 94 | 1018.4 |
| 20260505035345 | 77 | 241 | 0.0 | 0.0 | 0.00 | 0.09 | 0.09 | 94 | 1018.6 |
| 20260505034843 | 77 | 242 | 0.0 | 0.0 | 0.00 | 0.09 | 0.09 | 94 | 1018.6 |
| 20260505034339 | 77 | 238 | 0.9 | 0.9 | 0.00 | 0.09 | 0.09 | 94 | 1018.6 |
| 20260505033837 | 76 | 243 | 0.0 | 0.9 | 0.00 | 0.09 | 0.09 | 94 | 1018.7 |
| 20260505033333 | 76 | 294 | 0.0 | 0.0 | 0.00 | 0.09 | 0.09 | 94 | 1018.7 |
| 20260505032832 | 76 | 295 | 0.9 | 0.9 | 0.00 | 0.09 | 0.09 | 94 | 1018.5 |
| 20260505032328 | 76 | 288 | 0.9 | 0.9 | 0.00 | 0.09 | 0.09 | 94 | 1018.8 |
| 20260505031825 | 76 | 321 | 0.9 | 1.7 | 0.00 | 0.09 | 0.09 | 93 | 1018.7 |
| 20260505031321 | 76 | 309 | 0.9 | 1.7 | 0.00 | 0.09 | 0.09 | 93 | 1018.8 |
| 20260505030819 | 77 | 322 | 0.9 | 0.9 | 0.00 | 0.09 | 0.09 | 93 | 1018.6 |
| 20260505030315 | 77 | 283 | 0.9 | 0.9 | 0.00 | 0.09 | 0.09 | 93 | 1018.6 |
| 20260505025810 | 77 | 288 | 0.9 | 0.9 | 0.00 | 0.09 | 0.09 | 93 | 1018.8 |
| 20260505025308 | 77 | 236 | 0.0 | 0.9 | 0.00 | 0.09 | 0.09 | 93 | 1018.6 |
| 20260505024807 | 77 | 234 | 0.9 | 1.7 | 0.00 | 0.09 | 0.09 | 92 | 1018.7 |
| 20260505024304 | 77 | 266 | 0.0 | 1.7 | 0.00 | 0.09 | 0.09 | 92 | 1018.6 |
| 20260505023801 | 77 | 275 | 0.0 | 0.0 | 0.00 | 0.09 | 0.09 | 92 | 1018.7 |
| 20260505023258 | 77 | 296 | 0.0 | 0.0 | 0.00 | 0.09 | 0.09 | 92 | 1018.6 |
| 20260505022755 | 77 | 295 | 0.0 | 0.0 | 0.00 | 0.09 | 0.09 | 91 | 1018.4 |
| 20260505022252 | 78 | 271 | 0.0 | 0.9 | 0.00 | 0.09 | 0.09 | 91 | 1018.5 |
| 20260505021749 | 78 | 264 | 0.0 | 0.9 | 0.00 | 0.09 | 0.09 | 92 | 1018.4 |
| 20260505021246 | 77 | 258 | 0.0 | 1.7 | 0.00 | 0.09 | 0.09 | 92 | 1018.6 |
| 20260505020741 | 77 | 239 | 0.0 | 0.9 | 0.00 | 0.09 | 0.09 | 91 | 1018.6 |
| 20260505020237 | 77 | 232 | 1.7 | 2.6 | 0.00 | 0.09 | 0.09 | 91 | 1018.6 |
| 20260505015734 | 78 | 293 | 0.0 | 0.0 | 0.00 | 0.09 | 0.09 | 90 | 1018.6 |
| 20260505015231 | 78 | 284 | 0.0 | 1.7 | 0.00 | 0.09 | 0.09 | 89 | 1018.4 |
| 20260505014728 | 78 | 254 | 0.9 | 1.7 | 0.00 | 0.09 | 0.09 | 89 | 1018.4 |
| 20260505014226 | 78 | 249 | 0.0 | 0.0 | 0.00 | 0.09 | 0.09 | 89 | 1018.3 |
| 20260505013722 | 78 | 252 | 0.0 | 0.0 | 0.00 | 0.09 | 0.09 | 88 | 1018.4 |
| 20260505013219 | 79 | 287 | 0.0 | 0.0 | 0.00 | 0.09 | 0.09 | 87 | 1018.3 |
| 20260505012717 | 79 | 267 | 0.0 | 0.9 | 0.00 | 0.09 | 0.09 | 86 | 1018.2 |
| 20260505012214 | 79 | 86 | 0.9 | 0.9 | 0.00 | 0.09 | 0.09 | 87 | 1018.2 |
| 20260505011710 | 79 | 97 | 0.9 | 2.6 | 0.00 | 0.09 | 0.09 | 87 | 1018.1 |
| 20260505011208 | 79 | 65 | 1.7 | 1.7 | 0.00 | 0.09 | 0.09 | 87 | 1017.9 |
| 20260505010703 | 79 | 52 | 0.0 | 0.9 | 0.00 | 0.09 | 0.09 | 87 | 1018.0 |
| 20260505010200 | 79 | 105 | 0.9 | 2.6 | 0.00 | 0.09 | 0.09 | 87 | 1017.8 |
| 20260505005656 | 79 | 86 | 0.9 | 1.7 | 0.00 | 0.09 | 0.09 | 86 | 1017.8 |
| 20260505005153 | 80 | 146 | 0.0 | 0.0 | 0.00 | 0.09 | 0.09 | 86 | 1017.7 |
| 20260505004650 | 80 | 87 | 1.7 | 1.7 | 0.00 | 0.09 | 0.09 | 86 | 1017.9 |
| 20260505004146 | 80 | 90 | 1.7 | 2.6 | 0.00 | 0.09 | 0.09 | 85 | 1017.7 |
| 20260505003644 | 80 | 101 | 1.7 | 1.7 | 0.00 | 0.09 | 0.09 | 85 | 1017.6 |
| 20260505003141 | 80 | 194 | 0.0 | 0.0 | 0.00 | 0.09 | 0.09 | 85 | 1017.7 |
| 20260505002637 | 80 | 91 | 0.0 | 0.9 | 0.00 | 0.09 | 0.09 | 85 | 1017.9 |
| 20260505002136 | 80 | 157 | 1.7 | 1.7 | 0.00 | 0.09 | 0.09 | 85 | 1017.8 |
| 20260505001632 | 80 | 78 | 0.9 | 1.7 | 0.00 | 0.09 | 0.09 | 85 | 1017.7 |
| 20260505001130 | 80 | 149 | 0.0 | 0.0 | 0.00 | 0.09 | 0.09 | 85 | 1017.8 |
| 20260505000627 | 80 | 190 | 0.9 | 1.7 | 0.00 | 0.09 | 0.09 | 85 | 1017.9 |
| 20260505000125 | 80 | 170 | 0.9 | 1.7 | 0.00 | 0.09 | 0.09 | 84 | 1017.6 |
| 20260504235621 | 80 | 156 | 0.9 | 0.9 | 0.00 | 0.09 | 0.09 | 84 | 1017.7 |
| 20260504235117 | 81 | 162 | 1.7 | 1.7 | 0.00 | 0.09 | 0.09 | 82 | 1017.5 |
| 20260504234615 | 81 | 115 | 0.9 | 1.7 | 0.00 | 0.09 | 0.09 | 82 | 1017.5 |
| 20260504234112 | 81 | 175 | 0.0 | 0.9 | 0.00 | 0.09 | 0.09 | 81 | 1017.4 |
| 20260504233607 | 82 | 227 | 1.7 | 2.6 | 0.00 | 0.09 | 0.09 | 80 | 1017.2 |
| 20260504233104 | 82 | 131 | 1.7 | 2.6 | 0.00 | 0.09 | 0.09 | 80 | 1017.3 |
| 20260504232601 | 82 | 134 | 2.6 | 2.6 | 0.00 | 0.09 | 0.09 | 80 | 1017.4 |
| 20260504232059 | 82 | 107 | 0.9 | 1.7 | 0.00 | 0.09 | 0.09 | 80 | 1017.5 |
| 20260504231555 | 81 | 158 | 0.9 | 2.6 | 0.00 | 0.09 | 0.09 | 82 | 1017.4 |
| 20260504231051 | 80 | 108 | 1.7 | 1.7 | 0.00 | 0.09 | 0.09 | 84 | 1017.2 |
| 20260504230547 | 81 | 174 | 1.7 | 3.5 | 0.00 | 0.09 | 0.09 | 82 | 1017.3 |
| 20260504230046 | 81 | 129 | 1.7 | 1.7 | 0.00 | 0.09 | 0.09 | 83 | 1017.3 |
| 20260504225543 | 81 | 117 | 2.6 | 3.5 | 0.00 | 0.09 | 0.09 | 83 | 1017.2 |
| 20260504225040 | 81 | 113 | 2.6 | 2.6 | 0.00 | 0.09 | 0.09 | 83 | 1017.1 |
| 20260504224537 | 81 | 131 | 2.6 | 3.5 | 0.00 | 0.09 | 0.09 | 82 | 1017.3 |
| 20260504224034 | 81 | 182 | 0.9 | 2.6 | 0.00 | 0.09 | 0.09 | 83 | 1017.0 |
| 20260504223531 | 81 | 182 | 2.6 | 3.5 | 0.00 | 0.09 | 0.09 | 82 | 1016.8 |
| 20260504223027 | 81 | 168 | 0.9 | 3.5 | 0.00 | 0.09 | 0.09 | 82 | 1016.9 |
| 20260504222523 | 81 | 178 | 3.5 | 5.2 | 0.00 | 0.09 | 0.09 | 81 | 1017.0 |
| 20260504222021 | 81 | 103 | 3.5 | 3.5 | 0.00 | 0.09 | 0.09 | 81 | 1016.8 |
| 20260504221518 | 81 | 129 | 1.7 | 6.1 | 0.00 | 0.09 | 0.09 | 81 | 1016.7 |
| 20260504221015 | 82 | 145 | 4.3 | 7.0 | 0.00 | 0.09 | 0.09 | 79 | 1016.6 |
| 20260504220511 | 82 | 126 | 2.6 | 7.0 | 0.00 | 0.09 | 0.09 | 79 | 1016.7 |
| 20260504220009 | 82 | 154 | 6.1 | 7.8 | 0.00 | 0.09 | 0.09 | 77 | 1016.7 |
| 20260504215505 | 82 | 72 | 4.3 | 7.8 | 0.00 | 0.09 | 0.09 | 76 | 1016.6 |
| 20260504215003 | 83 | 148 | 4.3 | 8.7 | 0.00 | 0.09 | 0.09 | 75 | 1016.4 |
| 20260504214458 | 83 | 142 | 2.6 | 7.8 | 0.00 | 0.09 | 0.09 | 75 | 1016.2 |
| 20260504213955 | 83 | 120 | 5.2 | 7.0 | 0.00 | 0.09 | 0.09 | 75 | 1016.0 |
| 20260504213450 | 82 | 68 | 4.3 | 6.1 | 0.00 | 0.09 | 0.09 | 76 | 1016.3 |
| 20260504212948 | 82 | 105 | 5.2 | 7.8 | 0.00 | 0.09 | 0.09 | 76 | 1016.4 |
| 20260504212444 | 83 | 106 | 5.2 | 8.7 | 0.00 | 0.09 | 0.09 | 76 | 1016.1 |
| 20260504211942 | 83 | 120 | 4.3 | 7.8 | 0.00 | 0.09 | 0.09 | 77 | 1016.1 |
| 20260504211438 | 83 | 110 | 4.3 | 7.8 | 0.00 | 0.09 | 0.09 | 78 | 1016.2 |
| 20260504210936 | 82 | 105 | 4.3 | 6.1 | 0.00 | 0.09 | 0.09 | 79 | 1016.1 |
| 20260504210432 | 82 | 94 | 5.2 | 7.0 | 0.00 | 0.09 | 0.09 | 81 | 1016.1 |
| 20260504205929 | 82 | 159 | 5.2 | 7.0 | 0.00 | 0.09 | 0.09 | 81 | 1016.1 |
| 20260504205427 | 81 | 151 | 3.5 | 8.7 | 0.00 | 0.09 | 0.09 | 82 | 1015.9 |
| 20260504204925 | 81 | 67 | 5.2 | 7.0 | 0.00 | 0.09 | 0.09 | 83 | 1016.1 |
| 20260504204423 | 80 | 142 | 4.3 | 7.8 | 0.00 | 0.09 | 0.09 | 84 | 1016.1 |
| 20260504203922 | 80 | 104 | 4.3 | 7.8 | 0.00 | 0.09 | 0.09 | 84 | 1016.1 |
| 20260504203419 | 80 | 186 | 4.3 | 7.8 | 0.00 | 0.09 | 0.09 | 84 | 1016.2 |
| 20260504202915 | 82 | 130 | 7.0 | 11.3 | 0.00 | 0.09 | 0.09 | 81 | 1016.2 |
| 20260504202412 | 82 | 149 | 4.3 | 9.6 | 0.00 | 0.09 | 0.09 | 80 | 1016.2 |
| 20260504201909 | 82 | 57 | 5.2 | 7.0 | 0.00 | 0.09 | 0.09 | 79 | 1016.3 |
| 20260504201406 | 82 | 157 | 1.7 | 7.8 | 0.00 | 0.09 | 0.09 | 79 | 1016.3 |
| 20260504200903 | 82 | 148 | 3.5 | 7.8 | 0.00 | 0.09 | 0.09 | 80 | 1016.2 |
| 20260504200400 | 82 | 120 | 4.3 | 8.7 | 0.00 | 0.09 | 0.09 | 80 | 1016.4 |
| 20260504195856 | 82 | 133 | 7.0 | 8.7 | 0.00 | 0.09 | 0.09 | 81 | 1016.3 |
| 20260504195352 | 82 | 125 | 5.2 | 8.7 | 0.00 | 0.09 | 0.09 | 83 | 1016.2 |
| 20260504194849 | 82 | 144 | 6.1 | 7.8 | 0.00 | 0.09 | 0.09 | 82 | 1016.3 |
| 20260504194345 | 83 | 174 | 8.7 | 11.3 | 0.00 | 0.09 | 0.09 | 78 | 1016.3 |
| 20260504193841 | 82 | 129 | 4.3 | 6.1 | 0.00 | 0.09 | 0.09 | 81 | 1016.3 |
| 20260504193338 | 82 | 158 | 6.1 | 9.6 | 0.00 | 0.09 | 0.09 | 80 | 1016.4 |
| 20260504192837 | 83 | 148 | 5.2 | 7.8 | 0.00 | 0.09 | 0.09 | 80 | 1016.4 |
| 20260504192335 | 84 | 130 | 4.3 | 7.8 | 0.00 | 0.09 | 0.09 | 79 | 1016.2 |
| 20260504191833 | 84 | 123 | 5.2 | 8.7 | 0.00 | 0.09 | 0.09 | 79 | 1016.4 |
| 20260504191330 | 82 | 136 | 6.1 | 7.0 | 0.00 | 0.09 | 0.09 | 81 | 1016.3 |
| 20260504190825 | 83 | 151 | 6.1 | 11.3 | 0.00 | 0.09 | 0.09 | 81 | 1016.7 |
| 20260504190322 | 81 | 156 | 5.2 | 11.3 | 0.00 | 0.09 | 0.09 | 85 | 1016.6 |
| 20260504185818 | 82 | 138 | 2.6 | 11.3 | 0.00 | 0.09 | 0.09 | 85 | 1016.6 |
| 20260504185315 | 81 | 150 | 1.7 | 7.0 | 0.07 | 0.09 | 0.09 | 86 | 1016.5 |
| 20260504184811 | 82 | 94 | 7.8 | 11.3 | 0.07 | 0.09 | 0.09 | 83 | 1016.6 |
| 20260504184307 | 82 | 122 | 6.1 | 9.6 | 0.00 | 0.08 | 0.08 | 83 | 1016.5 |
| 20260504183803 | 84 | 113 | 5.2 | 13.0 | 0.00 | 0.08 | 0.08 | 78 | 1016.5 |
| 20260504183300 | 82 | 62 | 5.2 | 12.2 | 0.00 | 0.08 | 0.08 | 81 | 1016.8 |
| 20260504182758 | 82 | 121 | 7.0 | 9.6 | 0.00 | 0.08 | 0.08 | 82 | 1016.8 |
| 20260504182255 | 81 | 143 | 6.1 | 8.7 | 0.00 | 0.08 | 0.08 | 84 | 1016.7 |
| 20260504181753 | 82 | 195 | 4.3 | 8.7 | 0.00 | 0.08 | 0.08 | 84 | 1017.1 |
| 20260504181250 | 82 | 122 | 7.8 | 8.7 | 0.00 | 0.08 | 0.08 | 83 | 1017.0 |
| 20260504180749 | 82 | 132 | 10.4 | 13.0 | 0.00 | 0.08 | 0.08 | 80 | 1017.0 |
| 20260504180247 | 83 | 140 | 5.2 | 9.6 | 0.00 | 0.08 | 0.08 | 81 | 1016.9 |
| 20260504175745 | 82 | 99 | 8.7 | 12.2 | 0.00 | 0.08 | 0.08 | 82 | 1017.0 |
| 20260504175241 | 81 | 131 | 6.1 | 9.6 | 0.00 | 0.08 | 0.08 | 85 | 1017.1 |
| 20260504174739 | 81 | 107 | 7.0 | 9.6 | 0.00 | 0.08 | 0.08 | 87 | 1017.2 |
| 20260504174237 | 80 | 118 | 8.7 | 9.6 | 0.05 | 0.08 | 0.08 | 89 | 1017.3 |
| 20260504173733 | 80 | 119 | 6.1 | 8.7 | 0.31 | 0.08 | 0.08 | 88 | 1017.4 |
| 20260504173230 | 84 | 124 | 13.0 | 16.5 | 0.14 | 0.05 | 0.05 | 74 | 1017.5 |
| 20260504172727 | 85 | 64 | 4.3 | 11.3 | 0.00 | 0.03 | 0.03 | 73 | 1017.4 |
| 20260504172223 | 85 | 104 | 6.1 | 7.8 | 0.00 | 0.03 | 0.03 | 73 | 1017.3 |
| 20260504171720 | 85 | 152 | 5.2 | 9.6 | 0.00 | 0.03 | 0.03 | 71 | 1017.3 |
| 20260504171217 | 85 | 134 | 6.1 | 9.6 | 0.00 | 0.03 | 0.03 | 74 | 1017.5 |
| 20260504170714 | 84 | 91 | 6.1 | 9.6 | 0.00 | 0.03 | 0.03 | 74 | 1017.5 |
| 20260504170211 | 85 | 124 | 7.8 | 11.3 | 0.00 | 0.03 | 0.03 | 73 | 1017.5 |
| 20260504160129 | 84 | 71 | 2.6 | 11.3 | 0.00 | 0.03 | 0.03 | 73 | 1018.3 |
| 20260504151057 | 85 | 102 | 9.6 | 13.9 | 0.00 | 0.03 | 0.03 | 67 | 1018.4 |
| 20260504150554 | 85 | 103 | 9.6 | 13.9 | 0.00 | 0.03 | 0.03 | 67 | 1018.5 |
| 20260504141020 | 83 | 74 | 7.0 | 16.5 | 0.00 | 0.03 | 0.03 | 71 | 1018.4 |
| 20260504140516 | 83 | 86 | 9.6 | 13.9 | 0.00 | 0.03 | 0.03 | 74 | 1018.4 |
| 20260504130441 | 81 | 102 | 6.1 | 8.7 | 0.00 | 0.01 | 0.01 | 84 | 1018.6 |
| 20260504110328 | 77 | 80 | 4.3 | 5.2 | 0.00 | 0.00 | 0.00 | 88 | 1018.2 |
| 20260504100245 | 76 | 178 | 0.0 | 0.9 | 0.00 | 0.00 | 0.00 | 88 | 1017.7 |
| 20260504081639 | 77 | 109 | 0.9 | 3.5 | 0.00 | 0.00 | 0.00 | 88 | 1017.1 |
| 20260504081135 | 77 | 85 | 0.0 | 2.6 | 0.00 | 0.00 | 0.00 | 88 | 1017.1 |
| 20260504080632 | 77 | 58 | 1.7 | 3.5 | 0.00 | 0.00 | 0.00 | 88 | 1017.0 |
| 20260504080128 | 77 | 88 | 3.5 | 5.2 | 0.00 | 0.00 | 0.00 | 87 | 1017.1 |